TimeCDT,TemperatureF,Dew PointF,Humidity,Sea Level PressureIn,VisibilityMPH,Wind Direction,Wind SpeedMPH,Gust SpeedMPH,PrecipitationIn,Events,Conditions,WindDirDegrees,DateUTC
12:15 AM,80.2,64.6,59,29.99,10.0,SSE,9.2,-,N/A,,Clear,160,2013-07-12 05:15:00
12:35 AM,79.7,64.8,60,29.99,10.0,SSE,8.1,-,N/A,,Clear,160,2013-07-12 05:35:00
12:55 AM,79.0,65.3,63,30.00,10.0,SSE,10.4,-,N/A,,Clear,160,2013-07-12 05:55:00
1:15 AM,79.0,65.5,63,30.00,10.0,SSE,6.9,-,N/A,,Clear,160,2013-07-12 06:15:00
1:35 AM,78.8,66.4,66,30.00,10.0,SSE,6.9,-,N/A,,Clear,160,2013-07-12 06:35:00
1:55 AM,77.0,65.8,68,29.99,10.0,SSE,6.9,-,N/A,,Clear,160,2013-07-12 06:55:00
2:15 AM,76.5,66.4,71,29.99,10.0,SSE,3.5,-,N/A,,Clear,160,2013-07-12 07:15:00
2:35 AM,76.5,67.5,74,29.99,10.0,SE,3.5,-,N/A,,Clear,140,2013-07-12 07:35:00
2:55 AM,76.5,67.6,74,29.99,10.0,Calm,Calm,-,N/A,,Clear,0,2013-07-12 07:55:00
3:15 AM,76.5,68.5,76,29.99,10.0,Calm,Calm,-,N/A,,Clear,0,2013-07-12 08:15:00
3:35 AM,73.9,67.1,79,29.98,10.0,SSE,4.6,-,N/A,,Clear,150,2013-07-12 08:35:00
3:55 AM,73.9,67.5,80,29.99,10.0,SSE,3.5,-,N/A,,Clear,150,2013-07-12 08:55:00
4:15 AM,73.9,68.2,82,29.99,10.0,South,5.8,-,N/A,,Clear,170,2013-07-12 09:15:00
4:35 AM,72.7,67.8,85,29.99,10.0,SSE,5.8,-,N/A,,Clear,150,2013-07-12 09:35:00
4:55 AM,73.4,68.4,84,29.99,10.0,Calm,Calm,-,N/A,,Clear,0,2013-07-12 09:55:00
5:15 AM,72.7,67.8,85,29.99,10.0,Calm,Calm,-,N/A,,Clear,0,2013-07-12 10:15:00
5:35 AM,72.0,67.3,85,29.99,10.0,Calm,Calm,-,N/A,,Clear,0,2013-07-12 10:35:00
5:55 AM,71.6,67.1,86,29.99,10.0,ESE,3.5,-,N/A,,Clear,110,2013-07-12 10:55:00
6:15 AM,71.6,67.3,86,29.99,10.0,Calm,Calm,-,N/A,,Clear,0,2013-07-12 11:15:00
6:35 AM,71.6,67.6,87,29.99,10.0,Calm,Calm,-,N/A,,Clear,0,2013-07-12 11:35:00
6:55 AM,71.6,68.0,88,30.00,10.0,Calm,Calm,-,N/A,,Clear,0,2013-07-12 11:55:00
7:15 AM,71.6,68.2,89,30.00,10.0,Calm,Calm,-,N/A,,Clear,0,2013-07-12 12:15:00
7:35 AM,71.6,68.0,88,30.01,10.0,Calm,Calm,-,N/A,,Clear,0,2013-07-12 12:35:00
7:55 AM,71.8,68.4,89,30.01,10.0,Calm,Calm,-,N/A,,Scattered Clouds,0,2013-07-12 12:55:00
8:15 AM,72.7,69.3,89,30.02,10.0,South,3.5,-,N/A,,Overcast,170,2013-07-12 13:15:00
8:35 AM,73.8,70.3,89,30.02,10.0,Calm,Calm,-,N/A,,Overcast,0,2013-07-12 13:35:00
8:55 AM,76.3,71.8,86,30.02,10.0,South,4.6,-,N/A,,Overcast,180,2013-07-12 13:55:00
9:15 AM,76.5,70.9,83,30.02,10.0,South,4.6,-,N/A,,Scattered Clouds,170,2013-07-12 14:15:00
9:35 AM,76.8,70.5,81,30.02,10.0,South,3.5,-,N/A,,Clear,170,2013-07-12 14:35:00
9:55 AM,79.0,71.6,78,30.03,10.0,SE,4.6,-,N/A,,Scattered Clouds,140,2013-07-12 14:55:00
10:15 AM,79.0,69.6,73,30.02,10.0,SE,5.8,-,N/A,,Scattered Clouds,140,2013-07-12 15:15:00
10:35 AM,81.3,70.2,69,30.02,10.0,SSE,4.6,-,N/A,,Scattered Clouds,160,2013-07-12 15:35:00
10:55 AM,82.8,67.8,60,30.02,10.0,South,4.6,-,N/A,,Clear,190,2013-07-12 15:55:00
11:15 AM,84.6,66.7,55,30.02,10.0,ESE,3.5,-,N/A,,Clear,120,2013-07-12 16:15:00
11:35 AM,86.0,66.2,51,30.02,10.0,SSW,4.6,-,N/A,,Clear,210,2013-07-12 16:35:00
11:55 AM,86.5,65.7,50,30.02,10.0,SE,4.6,-,N/A,,Clear,130,2013-07-12 16:55:00
12:15 PM,88.3,63.0,43,30.02,10.0,ESE,4.6,-,N/A,,Clear,120,2013-07-12 17:15:00
12:35 PM,90.0,62.4,40,30.02,10.0,East,5.8,-,N/A,,Clear,100,2013-07-12 17:35:00
12:55 PM,90.3,63.7,41,30.01,10.0,SSE,3.5,-,N/A,,Clear,150,2013-07-12 17:55:00
1:15 PM,91.6,61.7,37,30.01,10.0,SE,4.6,-,N/A,,Clear,130,2013-07-12 18:15:00
1:35 PM,91.6,61.2,36,30.00,10.0,Calm,Calm,-,N/A,,Clear,0,2013-07-12 18:35:00
1:55 PM,91.6,59.2,34,30.00,10.0,Calm,Calm,-,N/A,,Clear,0,2013-07-12 18:55:00
2:15 PM,94.1,51.6,24,29.99,10.0,East,5.8,-,N/A,,Clear,100,2013-07-12 19:15:00
2:35 PM,96.8,49.5,20,29.98,10.0,East,8.1,-,N/A,,Clear,100,2013-07-12 19:35:00
2:55 PM,96.8,52.0,22,29.98,10.0,SSE,5.8,-,N/A,,Clear,160,2013-07-12 19:55:00
3:15 PM,96.8,53.2,23,29.97,10.0,SE,4.6,-,N/A,,Clear,130,2013-07-12 20:15:00
3:35 PM,96.8,52.3,22,29.97,10.0,NE,4.6,-,N/A,,Clear,40,2013-07-12 20:35:00
3:55 PM,96.8,53.6,23,29.96,10.0,SE,11.5,17.3,N/A,,Scattered Clouds,140,2013-07-12 20:55:00
4:15 PM,96.8,52.5,22,29.96,10.0,ESE,8.1,-,N/A,,Clear,110,2013-07-12 21:15:00
4:35 PM,96.8,53.4,23,29.96,10.0,ESE,10.4,-,N/A,,Clear,120,2013-07-12 21:35:00
4:55 PM,96.8,54.0,24,29.96,10.0,SE,8.1,17.3,N/A,,Clear,130,2013-07-12 21:55:00
5:15 PM,96.8,54.0,24,29.95,10.0,ESE,10.4,-,N/A,,Clear,120,2013-07-12 22:15:00
5:35 PM,96.8,53.8,23,29.95,10.0,SE,3.5,-,N/A,,Clear,140,2013-07-12 22:35:00
5:55 PM,96.8,53.6,23,29.95,10.0,SE,12.7,-,N/A,,Clear,140,2013-07-12 22:55:00
6:15 PM,95.5,53.1,24,29.95,10.0,SE,11.5,-,N/A,,Clear,130,2013-07-12 23:15:00
6:35 PM,94.1,52.2,24,29.95,10.0,ESE,9.2,-,N/A,,Clear,110,2013-07-12 23:35:00
6:55 PM,94.1,53.4,25,29.94,10.0,SE,11.5,-,N/A,,Clear,130,2013-07-12 23:55:00
7:15 PM,92.7,53.8,27,29.95,10.0,SE,8.1,-,N/A,,Clear,130,2013-07-13 00:15:00
7:35 PM,91.6,55.0,29,29.95,10.0,SE,11.5,-,N/A,,Clear,140,2013-07-13 00:35:00
7:55 PM,91.6,56.3,30,29.95,10.0,SE,9.2,-,N/A,,Clear,140,2013-07-13 00:55:00
8:15 PM,91.6,57.6,32,29.95,10.0,SSE,6.9,-,N/A,,Clear,150,2013-07-13 01:15:00
8:35 PM,89.1,57.0,34,29.95,10.0,SSE,4.6,-,N/A,,Clear,160,2013-07-13 01:35:00
8:55 PM,86.5,56.8,36,29.95,10.0,South,3.5,-,N/A,,Clear,170,2013-07-13 01:55:00
9:15 PM,85.8,57.0,37,29.95,10.0,Calm,Calm,-,N/A,,Clear,0,2013-07-13 02:15:00
9:35 PM,84.9,57.2,39,29.95,10.0,Calm,Calm,-,N/A,,Clear,0,2013-07-13 02:35:00
9:55 PM,83.8,58.1,41,29.95,10.0,Calm,Calm,-,N/A,,Clear,0,2013-07-13 02:55:00
10:15 PM,81.5,58.3,45,29.95,10.0,Calm,Calm,-,N/A,,Clear,0,2013-07-13 03:15:00
10:35 PM,81.9,58.1,44,29.95,10.0,Calm,Calm,-,N/A,,Clear,0,2013-07-13 03:35:00
10:55 PM,81.5,58.5,45,29.96,10.0,Calm,Calm,-,N/A,,Clear,0,2013-07-13 03:55:00
11:15 PM,79.7,58.6,48,29.97,10.0,ESE,3.5,-,N/A,,Clear,120,2013-07-13 04:15:00
11:35 PM,81.5,60.4,49,29.98,10.0,SE,3.5,-,N/A,,Clear,130,2013-07-13 04:35:00
11:55 PM,79.9,60.8,52,29.98,10.0,SE,3.5,-,N/A,,Clear,140,2013-07-13 04:55:00